Glen Allen, Virginia
Current Conditions -  °F | °C
As of 8:44 AM on Wednesday 26 Nov 2014 (Local Time) from KOFP Reporting Station
Light Rain Light Rain  
Wind Chill: 38°   Ceiling: 4500
Heat Index: 42°   Visibility: 4mi
Dew Point: 40°   Wind: 6mph
Humidity: 92%   Direction: NA
Pressure: 30.05"   Gusts: 18mph
Location:  37.67°N, 77.5°W
Report Text: KOFP 261344Z AUTO VRB05G16KT 4SM -RA BR FEW011 BKN045 OVC075 06/04 A3005 RMK AO2 PRESRR P0016 T00560044
Loading
Personal Weather Stations






























Interactive Weather Map New forecast layout! Learn more

10-Day Weather Forecast

Advertisements
Track Severe Weather on mobile